Time;durP1;ratioP1;P1;durP2;ratioP2;P2;SDS_P1;SDS_P2;PMS_P1;PMS_P2;Temp;Humidity;BMP_temperature;BMP_pressure;BME280_temperature;BME280_humidity;BME280_pressure;Samples;Min_cycle;Max_cycle;Signal;HPM_P1;HPM_P2
2023/05/28 00:01:37;;;;;;;4.73;3.20;;;12.00;99.90;;;;;;5064313;28;20458;-67
2023/05/28 00:04:03;;;;;;;3.63;3.03;;;12.00;99.90;;;;;;5070371;28;20470;-68
2023/05/28 00:06:30;;;;;;;5.10;3.10;;;11.90;99.90;;;;;;5057073;28;20981;-66
2023/05/28 00:08:57;;;;;;;5.00;3.53;;;11.90;99.90;;;;;;5066496;28;20996;-66
2023/05/28 00:11:23;;;;;;;6.63;3.53;;;11.90;99.90;;;;;;5070132;28;20201;-66
2023/05/28 00:13:50;;;;;;;3.80;3.27;;;11.80;99.90;;;;;;5070209;28;20466;-66
2023/05/28 00:16:17;;;;;;;8.40;4.10;;;11.80;99.90;;;;;;5050299;28;20466;-66
2023/05/28 00:18:45;;;;;;;7.57;3.80;;;11.80;99.90;;;;;;5056488;28;20478;-66
2023/05/28 00:21:12;;;;;;;5.87;3.10;;;11.80;99.90;;;;;;5052926;28;20466;-66
2023/05/28 00:23:39;;;;;;;5.90;2.83;;;11.70;99.90;;;;;;5056171;28;20505;-66
2023/05/28 00:26:05;;;;;;;3.10;2.80;;;11.70;99.90;;;;;;5049748;28;20464;-65
2023/05/28 00:28:32;;;;;;;4.60;3.17;;;11.70;99.90;;;;;;5049866;28;20498;-66
2023/05/28 00:30:59;;;;;;;6.23;3.40;;;11.60;99.90;;;;;;5049853;28;20459;-66
2023/05/28 00:33:25;;;;;;;8.73;2.87;;;11.60;99.90;;;;;;5070040;28;20920;-66
2023/05/28 00:35:55;;;;;;;3.40;3.10;;;11.50;99.90;;;;;;5070111;28;20462;-66
2023/05/28 00:38:22;;;;;;;3.70;2.87;;;11.50;99.90;;;;;;5057737;28;20486;-65
2023/05/28 00:40:49;;;;;;;5.40;3.57;;;11.40;99.90;;;;;;5049753;28;20891;-66
2023/05/28 00:43:16;;;;;;;4.73;2.80;;;11.40;99.90;;;;;;5052154;28;20470;-67
2023/05/28 00:45:43;;;;;;;6.20;3.40;;;11.40;99.90;;;;;;5069865;28;20458;-66
2023/05/28 00:48:10;;;;;;;4.97;3.53;;;11.40;99.90;;;;;;5070066;28;20539;-66
2023/05/28 00:50:38;;;;;;;3.85;3.50;;;11.40;99.90;;;;;;5068140;28;20460;-67
2023/05/28 00:53:07;;;;;;;5.13;3.73;;;11.40;99.90;;;;;;5053345;28;20205;-68
2023/05/28 00:55:34;;;;;;;4.07;3.53;;;11.30;99.90;;;;;;5053713;28;20459;-67
2023/05/28 00:58:05;;;;;;;5.50;3.33;;;11.30;99.90;;;;;;5053327;28;20479;-68
2023/05/28 01:00:32;;;;;;;3.73;2.93;;;11.30;99.90;;;;;;5066331;28;20469;-67
2023/05/28 01:02:59;;;;;;;5.17;3.20;;;11.20;99.90;;;;;;5056822;28;20455;-67
2023/05/28 01:05:25;;;;;;;5.20;3.77;;;11.20;99.90;;;;;;5065635;28;20458;-68
2023/05/28 01:07:52;;;;;;;4.93;3.80;;;11.10;99.90;;;;;;5073375;28;20859;-68
2023/05/28 01:10:21;;;;;;;3.92;2.97;;;11.20;99.90;;;;;;5069853;28;20498;-68
2023/05/28 01:12:48;;;;;;;3.80;3.40;;;11.10;99.90;;;;;;5062207;28;20664;-68
2023/05/28 01:15:15;;;;;;;3.95;3.00;;;11.10;99.90;;;;;;5063513;28;20465;-68
2023/05/28 01:17:42;;;;;;;5.80;3.63;;;11.00;99.90;;;;;;5067444;28;20217;-68
2023/05/28 01:20:13;;;;;;;4.40;3.33;;;11.00;99.90;;;;;;5052245;28;20267;-67
2023/05/28 01:22:46;;;;;;;8.30;3.73;;;11.00;99.90;;;;;;5053413;28;20529;-68
2023/05/28 01:25:15;;;;;;;2.92;2.45;;;11.00;99.90;;;;;;5052772;28;20487;-68
2023/05/28 01:27:42;;;;;;;3.33;3.03;;;11.00;99.90;;;;;;5052925;28;20225;-68
2023/05/28 01:30:11;;;;;;;6.10;3.33;;;11.00;99.90;;;;;;5070560;28;20220;-69
2023/05/28 01:32:38;;;;;;;4.15;3.22;;;11.00;99.90;;;;;;5072948;28;20520;-69
2023/05/28 01:35:06;;;;;;;5.20;2.90;;;10.90;99.90;;;;;;5064054;28;20201;-69
2023/05/28 01:37:36;;;;;;;3.00;2.67;;;10.90;99.90;;;;;;5052895;28;20617;-69
2023/05/28 01:40:04;;;;;;;4.32;3.60;;;10.80;99.90;;;;;;5052079;28;20459;-69
2023/05/28 01:42:34;;;;;;;4.28;3.10;;;10.90;99.90;;;;;;5056952;28;20201;-69
2023/05/28 01:45:02;;;;;;;5.70;3.50;;;10.80;99.90;;;;;;5064063;28;20208;-69
2023/05/28 01:47:30;;;;;;;4.63;2.90;;;10.80;99.90;;;;;;5064652;28;20471;-69
2023/05/28 01:49:57;;;;;;;4.07;3.17;;;10.80;99.90;;;;;;5072148;28;20470;-69
2023/05/28 01:52:23;;;;;;;5.55;3.45;;;10.70;99.90;;;;;;5072113;28;20201;-69
2023/05/28 01:54:50;;;;;;;3.40;2.67;;;10.70;99.90;;;;;;5065965;28;20208;-69
2023/05/28 01:57:17;;;;;;;5.22;3.28;;;10.70;99.90;;;;;;5052257;28;20624;-70
2023/05/28 01:59:45;;;;;;;5.17;3.57;;;10.60;99.90;;;;;;5057212;28;20192;-69
2023/05/28 02:02:11;;;;;;;3.90;3.23;;;10.70;99.90;;;;;;5072114;28;20516;-69
2023/05/28 02:04:38;;;;;;;6.72;3.53;;;10.60;99.90;;;;;;5072692;28;20809;-69
2023/05/28 02:07:05;;;;;;;3.15;2.70;;;10.60;99.90;;;;;;5072006;28;20247;-69
2023/05/28 02:09:32;;;;;;;4.80;3.10;;;10.60;99.90;;;;;;5067484;28;20300;-69
2023/05/28 02:12:02;;;;;;;4.68;4.03;;;10.60;99.90;;;;;;5052433;28;20331;-69
2023/05/28 02:14:29;;;;;;;5.03;3.25;;;10.50;99.90;;;;;;5052016;28;20205;-69
2023/05/28 02:16:58;;;;;;;7.38;4.53;;;10.50;99.90;;;;;;5067875;28;20244;-69
2023/05/28 02:19:25;;;;;;;3.63;3.20;;;10.50;99.90;;;;;;5071319;28;20207;-69
2023/05/28 02:21:53;;;;;;;5.82;3.40;;;10.50;99.90;;;;;;5072053;28;20763;-70
2023/05/28 02:24:19;;;;;;;7.13;3.30;;;10.40;99.90;;;;;;5063606;28;20196;-69
2023/05/28 02:26:46;;;;;;;4.68;3.63;;;10.50;99.90;;;;;;5071920;28;20660;-69
2023/05/28 02:29:13;;;;;;;3.40;3.10;;;10.40;99.90;;;;;;5054796;28;20490;-69
2023/05/28 02:31:39;;;;;;;4.30;3.60;;;10.40;99.90;;;;;;5071845;28;20203;-69
2023/05/28 02:34:08;;;;;;;5.25;3.42;;;10.40;99.90;;;;;;5071593;28;20621;-69
2023/05/28 02:36:35;;;;;;;5.45;3.40;;;10.30;99.90;;;;;;5071808;28;20203;-69
2023/05/28 02:39:02;;;;;;;4.20;3.30;;;10.30;99.90;;;;;;5071248;28;20570;-69
2023/05/28 02:41:29;;;;;;;7.78;3.80;;;10.30;99.90;;;;;;5055068;28;20196;-69
2023/05/28 02:43:56;;;;;;;5.03;3.50;;;10.30;99.90;;;;;;5071647;28;20664;-69
2023/05/28 02:46:22;;;;;;;4.82;3.78;;;10.20;99.90;;;;;;5068699;28;20221;-69
2023/05/28 02:48:49;;;;;;;4.80;3.55;;;10.20;99.90;;;;;;5051244;28;20232;-69
2023/05/28 02:51:17;;;;;;;4.43;3.15;;;10.20;99.90;;;;;;5050673;28;20201;-69
2023/05/28 02:53:45;;;;;;;5.30;3.20;;;10.20;99.90;;;;;;5051499;28;20561;-69
2023/05/28 02:56:11;;;;;;;5.05;3.75;;;10.20;99.90;;;;;;5060641;28;20230;-68
2023/05/28 02:58:39;;;;;;;6.28;3.08;;;10.20;99.90;;;;;;5071239;28;20306;-68
2023/05/28 03:01:06;;;;;;;3.72;3.35;;;10.10;99.90;;;;;;5054108;28;20203;-69
2023/05/28 03:03:33;;;;;;;4.28;3.08;;;10.20;99.90;;;;;;5059477;28;20224;-68
2023/05/28 03:06:00;;;;;;;4.70;3.33;;;10.10;99.90;;;;;;5067301;28;20203;-68
2023/05/28 03:08:28;;;;;;;6.00;3.60;;;10.10;99.90;;;;;;5062292;28;20269;-68
2023/05/28 03:10:55;;;;;;;5.32;3.10;;;10.20;99.90;;;;;;5070655;28;20208;-69
2023/05/28 03:13:21;;;;;;;7.00;3.33;;;10.10;99.90;;;;;;5069852;28;20212;-69
2023/05/28 03:15:48;;;;;;;5.10;3.42;;;10.10;99.90;;;;;;5056967;28;20208;-68
2023/05/28 03:18:15;;;;;;;6.13;3.85;;;10.10;99.90;;;;;;5050266;28;20220;-69
2023/05/28 03:20:42;;;;;;;4.93;3.40;;;10.00;99.90;;;;;;5050678;28;20201;-68
2023/05/28 03:23:08;;;;;;;4.95;3.20;;;10.00;99.90;;;;;;5050767;28;20684;-68
2023/05/28 03:25:36;;;;;;;6.07;3.80;;;10.00;99.90;;;;;;5054845;28;20203;-68
2023/05/28 03:28:03;;;;;;;5.60;3.58;;;10.00;99.90;;;;;;5070629;28;20235;-68
2023/05/28 03:30:30;;;;;;;5.10;3.75;;;10.00;99.90;;;;;;5058280;28;20247;-69
2023/05/28 03:32:57;;;;;;;5.45;3.78;;;10.00;99.90;;;;;;5050742;28;20201;-68
2023/05/28 03:35:23;;;;;;;7.32;3.80;;;10.00;99.90;;;;;;5060885;28;20633;-68
2023/05/28 03:37:50;;;;;;;5.28;3.72;;;9.90;99.90;;;;;;5070489;28;20224;-68
2023/05/28 03:40:17;;;;;;;3.97;3.00;;;9.90;99.90;;;;;;5069715;28;20203;-68
2023/05/28 03:42:45;;;;;;;5.00;3.53;;;9.90;99.90;;;;;;5070883;28;20204;-67
2023/05/28 03:45:12;;;;;;;3.28;2.97;;;9.90;99.90;;;;;;5069765;28;20291;-68
2023/05/28 03:47:39;;;;;;;4.85;3.50;;;9.90;99.90;;;;;;5054771;28;20219;-68
2023/05/28 03:50:07;;;;;;;7.97;3.63;;;9.90;99.90;;;;;;5053558;28;20722;-68
2023/05/28 03:52:33;;;;;;;4.75;3.30;;;9.90;99.90;;;;;;5058865;28;20205;-68
2023/05/28 03:55:00;;;;;;;4.78;3.80;;;9.80;99.90;;;;;;5057764;28;20196;-68
2023/05/28 03:57:27;;;;;;;8.05;3.70;;;9.80;99.90;;;;;;5069889;28;20216;-69
2023/05/28 03:59:57;;;;;;;7.88;3.45;;;9.80;99.90;;;;;;5063694;28;20192;-68
2023/05/28 04:02:24;;;;;;;4.85;3.55;;;9.80;99.90;;;;;;5068980;28;20208;-68
2023/05/28 04:04:51;;;;;;;5.40;3.63;;;9.80;99.90;;;;;;5070318;28;20235;-68
2023/05/28 04:07:17;;;;;;;6.22;4.15;;;9.90;99.90;;;;;;5060451;28;20221;-68
2023/05/28 04:09:44;;;;;;;3.65;3.35;;;9.90;99.90;;;;;;5049846;28;20271;-68
2023/05/28 04:12:12;;;;;;;4.95;2.95;;;9.90;99.90;;;;;;5067003;28;20208;-69
2023/05/28 04:14:39;;;;;;;3.72;3.20;;;9.90;99.90;;;;;;5066192;28;20197;-68
2023/05/28 04:17:07;;;;;;;3.90;3.25;;;9.90;99.90;;;;;;5050219;28;20224;-68
2023/05/28 04:19:34;;;;;;;5.25;3.50;;;10.00;99.90;;;;;;5049520;28;20577;-68
2023/05/28 04:22:01;;;;;;;4.80;3.20;;;10.00;99.90;;;;;;5057921;28;20204;-68
2023/05/28 04:24:28;;;;;;;5.05;3.92;;;10.00;99.90;;;;;;5064658;28;20208;-69
2023/05/28 04:26:56;;;;;;;3.90;3.25;;;10.10;99.90;;;;;;5074160;28;20227;-69
2023/05/28 04:29:25;;;;;;;4.38;3.70;;;10.10;99.90;;;;;;5063237;28;20732;-69
2023/05/28 04:31:51;;;;;;;5.60;3.88;;;10.20;99.90;;;;;;5054585;28;20208;-69
2023/05/28 04:34:20;;;;;;;7.03;3.78;;;10.20;99.90;;;;;;5069624;23;20225;-95
2023/05/28 04:36:48;;;;;;;4.88;3.97;;;10.20;99.90;;;;;;5062075;28;20283;-92
2023/05/28 04:39:14;;;;;;;4.35;3.58;;;10.30;99.90;;;;;;5058174;28;20197;-92
2023/05/28 04:41:43;;;;;;;6.05;3.80;;;10.40;99.90;;;;;;5057931;28;20228;-92
2023/05/28 04:44:10;;;;;;;6.68;5.07;;;10.40;99.90;;;;;;5058730;28;20560;-92
2023/05/28 04:46:37;;;;;;;4.68;3.33;;;10.50;99.90;;;;;;5058585;28;20201;-91
2023/05/28 04:49:04;;;;;;;3.85;3.25;;;10.50;99.90;;;;;;5058271;28;20201;-92
2023/05/28 04:51:32;;;;;;;6.00;3.28;;;10.60;99.90;;;;;;5058689;28;20240;-91
2023/05/28 04:53:59;;;;;;;4.53;3.67;;;10.60;99.90;;;;;;5057982;28;20235;-92
2023/05/28 04:56:26;;;;;;;3.90;3.17;;;10.70;99.90;;;;;;5057838;28;20216;-91
2023/05/28 04:58:53;;;;;;;5.80;3.33;;;10.80;99.90;;;;;;5057833;28;20241;-91
2023/05/28 05:01:19;;;;;;;3.90;3.55;;;10.80;99.90;;;;;;5058099;28;20228;-92
2023/05/28 05:03:46;;;;;;;3.67;3.10;;;10.90;99.90;;;;;;5058124;28;20659;-92
2023/05/28 05:06:13;;;;;;;5.75;3.75;;;11.00;99.90;;;;;;5057849;28;20201;-93
2023/05/28 05:08:41;;;;;;;3.78;3.00;;;11.10;99.90;;;;;;5057560;28;20209;-92
2023/05/28 05:11:08;;;;;;;5.97;3.70;;;11.20;99.90;;;;;;5057314;28;20236;-92
2023/05/28 05:13:35;;;;;;;5.15;3.70;;;11.40;99.90;;;;;;5057891;28;20216;-91
2023/05/28 05:16:02;;;;;;;6.18;3.50;;;11.40;99.90;;;;;;5057867;28;20212;-92
2023/05/28 05:18:28;;;;;;;5.30;4.35;;;11.50;99.90;;;;;;5058503;28;20212;-92
2023/05/28 05:20:55;;;;;;;7.63;4.53;;;11.60;99.90;;;;;;5057333;28;20256;-91
2023/05/28 05:23:22;;;;;;;4.43;3.70;;;11.60;99.90;;;;;;5058709;28;20708;-91
2023/05/28 05:25:50;;;;;;;4.30;3.53;;;11.70;99.90;;;;;;5068353;28;20430;-93
2023/05/28 05:28:17;;;;;;;7.77;3.83;;;11.90;99.90;;;;;;5080715;28;20185;-94
2023/05/28 05:30:44;;;;;;;4.97;3.40;;;12.00;99.90;;;;;;5079325;28;20486;-92
2023/05/28 05:33:11;;;;;;;4.47;3.17;;;12.10;99.90;;;;;;5072347;28;20530;-90
2023/05/28 05:35:38;;;;;;;4.90;3.43;;;12.30;99.90;;;;;;5062184;28;20541;-90
2023/05/28 05:38:05;;;;;;;5.40;3.70;;;12.40;99.90;;;;;;5057847;28;20486;-90
2023/05/28 05:40:32;;;;;;;5.00;3.30;;;12.50;99.90;;;;;;5060707;28;20482;-91
2023/05/28 05:43:00;;;;;;;4.53;3.10;;;12.70;99.90;;;;;;5071658;28;20459;-90
2023/05/28 05:45:27;;;;;;;4.97;3.70;;;12.80;99.90;;;;;;5072401;28;20463;-90
2023/05/28 05:47:54;;;;;;;3.70;3.00;;;12.90;99.90;;;;;;5063394;28;20707;-91
2023/05/28 05:50:21;;;;;;;8.77;2.63;;;13.00;99.90;;;;;;5067384;28;20497;-90
2023/05/28 05:52:47;;;;;;;4.07;3.27;;;13.10;99.90;;;;;;5061326;28;20463;-91
2023/05/28 05:55:14;;;;;;;8.73;3.27;;;13.20;99.90;;;;;;5062196;28;20451;-90
2023/05/28 05:57:41;;;;;;;5.00;3.53;;;13.30;99.90;;;;;;5061939;28;20495;-91
2023/05/28 06:00:11;;;;;;;3.53;2.70;;;13.40;99.90;;;;;;5059814;28;20451;-91
2023/05/28 06:02:38;;;;;;;5.33;3.00;;;13.50;99.90;;;;;;5061491;28;20459;-90
2023/05/28 06:05:06;;;;;;;5.90;3.67;;;13.60;99.90;;;;;;5061011;28;20467;-91
2023/05/28 06:07:34;;;;;;;3.70;3.20;;;13.70;99.90;;;;;;5063085;28;20547;-91
2023/05/28 06:10:00;;;;;;;4.20;3.70;;;13.80;99.90;;;;;;5065015;28;20475;-92
2023/05/28 06:12:27;;;;;;;3.80;3.17;;;14.00;99.90;;;;;;5064235;28;20455;-91
2023/05/28 06:14:55;;;;;;;5.03;3.27;;;14.10;99.90;;;;;;5064942;28;20463;-91
2023/05/28 06:17:23;;;;;;;5.40;3.20;;;14.20;99.90;;;;;;5067753;28;20466;-91
2023/05/28 06:19:50;;;;;;;5.40;3.67;;;14.30;99.90;;;;;;5066466;28;20453;-91
2023/05/28 06:22:17;;;;;;;4.87;3.47;;;14.40;99.90;;;;;;5065519;28;20475;-92
2023/05/28 06:24:44;;;;;;;4.27;3.20;;;14.50;99.90;;;;;;5065336;28;20459;-92
2023/05/28 06:27:11;;;;;;;5.00;2.97;;;14.60;99.90;;;;;;5062266;28;20466;-93
2023/05/28 06:29:38;;;;;;;6.43;3.53;;;14.70;99.90;;;;;;5064734;28;20964;-91
2023/05/28 06:32:05;;;;;;;6.80;3.70;;;14.80;99.90;;;;;;5064058;28;20483;-92
2023/05/28 06:34:33;;;;;;;6.30;3.20;;;14.80;99.90;;;;;;5062900;28;20476;-91
2023/05/28 06:37:00;;;;;;;4.77;2.80;;;14.90;99.90;;;;;;5061606;28;20470;-91
2023/05/28 06:39:28;;;;;;;4.20;3.17;;;15.00;99.90;;;;;;5060211;28;20470;-91
2023/05/28 06:41:57;;;;;;;4.90;3.27;;;15.10;99.90;;;;;;5060615;28;20480;-91
2023/05/28 06:44:24;;;;;;;4.93;3.60;;;15.20;99.90;;;;;;5060310;28;20455;-90
2023/05/28 06:46:51;;;;;;;4.60;3.93;;;15.30;99.90;;;;;;5058049;28;20558;-91
2023/05/28 06:49:18;;;;;;;2.73;2.47;;;15.30;99.90;;;;;;5057506;28;20467;-92
2023/05/28 06:51:46;;;;;;;4.93;3.30;;;15.40;99.90;;;;;;5056926;28;20856;-91
2023/05/28 06:54:13;;;;;;;4.47;3.20;;;15.40;99.90;;;;;;5056503;28;20466;-91
2023/05/28 06:56:41;;;;;;;3.60;2.70;;;15.60;99.90;;;;;;5057033;28;20522;-91
2023/05/28 06:59:07;;;;;;;4.07;3.10;;;15.70;99.90;;;;;;5056502;28;20963;-91
2023/05/28 07:01:34;;;;;;;4.57;3.10;;;15.80;99.90;;;;;;5055037;28;20490;-91
2023/05/28 07:04:01;;;;;;;4.33;3.23;;;15.90;99.90;;;;;;5066539;28;20462;-93
2023/05/28 07:06:28;;;;;;;12.17;4.30;;;15.90;99.90;;;;;;5070264;28;20510;-92
2023/05/28 07:08:56;;;;;;;4.20;2.90;;;16.00;99.90;;;;;;5066978;28;20463;-95
2023/05/28 07:11:26;;;;;;;4.13;2.77;;;16.10;99.90;;;;;;5069347;28;20552;-92
2023/05/28 07:13:54;;;;;;;8.20;3.70;;;16.20;99.90;;;;;;5072635;28;20566;-93
2023/05/28 07:16:31;;;;;;;5.67;3.60;;;16.20;99.90;;;;;;5072182;28;20444;-92
2023/05/28 07:18:58;;;;;;;4.20;2.80;;;16.30;99.90;;;;;;5065234;28;20455;-92
2023/05/28 07:21:25;;;;;;;9.50;3.40;;;16.50;99.90;;;;;;5069205;28;20546;-93
2023/05/28 07:23:52;;;;;;;5.90;2.90;;;16.60;99.90;;;;;;5068402;28;20451;-92
2023/05/28 07:26:21;;;;;;;3.47;3.00;;;16.80;99.90;;;;;;5067495;28;20986;-92
2023/05/28 07:28:48;;;;;;;5.30;3.30;;;16.90;99.90;;;;;;5067737;28;20491;-92
2023/05/28 07:31:15;;;;;;;4.20;2.83;;;17.00;99.90;;;;;;5067952;28;20479;-92
2023/05/28 07:33:42;;;;;;;5.37;3.20;;;17.00;99.90;;;;;;5067404;28;20451;-92
2023/05/28 07:36:10;;;;;;;7.70;3.47;;;17.10;99.90;;;;;;5067349;28;20455;-92
2023/05/28 07:38:37;;;;;;;7.40;2.90;;;17.20;99.90;;;;;;5051396;28;20557;-92
2023/05/28 07:41:05;;;;;;;8.97;3.40;;;17.30;99.90;;;;;;5070531;28;20471;-92
2023/05/28 07:43:34;;;;;;;4.80;2.60;;;17.50;99.90;;;;;;5071765;28;20459;-93
2023/05/28 07:48:44;;;;;;;3.90;3.20;;;17.70;99.90;;;;;;5071001;28;20463;-93
2023/05/28 07:51:23;;;;;;;5.70;3.07;;;17.80;99.90;;;;;;5073804;28;20489;-92
2023/05/28 07:53:53;;;;;;;4.87;3.30;;;17.90;99.90;;;;;;5075813;28;20438;-93
2023/05/28 07:56:43;;;;;;;3.40;2.83;;;18.00;99.90;;;;;;5074275;28;20474;-93
2023/05/28 07:59:13;;;;;;;4.23;3.70;;;18.10;99.90;;;;;;5074331;28;20535;-93
2023/05/28 08:01:40;;;;;;;5.27;2.93;;;18.10;99.40;;;;;;5075402;28;20459;-93
2023/05/28 08:07:03;;;;;;;4.47;2.90;;;18.30;99.90;;;;;;5073847;28;20516;-94
2023/05/28 08:09:50;;;;;;;4.93;3.30;;;18.40;99.90;;;;;;5074902;28;20419;-93
2023/05/28 08:12:36;;;;;;;4.90;3.03;;;18.50;99.90;;;;;;5046337;22;20480;-68
2023/05/28 08:15:06;;;;;;;3.67;3.00;;;18.60;99.90;;;;;;5042723;28;20478;-67
2023/05/28 08:17:32;;;;;;;5.20;3.67;;;18.70;99.90;;;;;;5040754;28;20480;-68
2023/05/28 08:19:59;;;;;;;6.57;3.60;;;18.80;99.90;;;;;;5049514;28;20456;-68
2023/05/28 08:22:26;;;;;;;7.87;3.07;;;18.90;99.90;;;;;;5049022;28;20451;-68
2023/05/28 08:24:53;;;;;;;7.57;3.40;;;19.10;99.90;;;;;;5049327;28;20455;-68
2023/05/28 08:27:20;;;;;;;4.20;3.53;;;19.30;99.90;;;;;;5048573;28;20893;-68
2023/05/28 08:29:47;;;;;;;7.13;3.23;;;19.40;99.90;;;;;;5048272;28;20548;-67
2023/05/28 08:32:15;;;;;;;5.40;3.37;;;19.50;99.90;;;;;;5049691;28;20875;-69
2023/05/28 08:34:41;;;;;;;3.90;2.90;;;19.60;99.60;;;;;;5049471;28;20459;-68
2023/05/28 08:37:08;;;;;;;3.90;3.00;;;19.70;99.90;;;;;;5049785;28;20476;-68
2023/05/28 08:39:35;;;;;;;3.27;2.97;;;19.80;99.10;;;;;;5048956;28;20521;-68
2023/05/28 08:42:02;;;;;;;4.00;3.20;;;19.90;99.90;;;;;;5050006;28;20559;-69
2023/05/28 08:44:29;;;;;;;4.80;3.50;;;20.00;99.90;;;;;;5049383;28;20463;-68
2023/05/28 08:46:56;;;;;;;6.37;3.73;;;20.20;99.90;;;;;;5049655;28;20505;-68
2023/05/28 08:49:32;;;;;;;6.23;3.63;;;20.30;99.90;;;;;;5049227;28;20463;-67
2023/05/28 08:52:00;;;;;;;4.60;3.40;;;20.50;99.90;;;;;;5049687;28;20931;-69
2023/05/28 08:54:28;;;;;;;4.70;3.33;;;20.60;99.20;;;;;;5049263;28;20487;-67
2023/05/28 08:56:55;;;;;;;7.13;3.53;;;20.60;99.50;;;;;;5049155;28;20479;-69
2023/05/28 08:59:23;;;;;;;3.80;3.00;;;20.70;99.90;;;;;;5048794;28;20460;-68
2023/05/28 09:01:50;;;;;;;4.10;3.37;;;20.90;99.90;;;;;;5049118;28;20479;-68
2023/05/28 09:04:17;;;;;;;3.70;3.00;;;21.00;99.90;;;;;;5049614;28;20555;-69
2023/05/28 09:06:45;;;;;;;4.43;2.90;;;21.10;99.90;;;;;;5049084;28;20460;-67
2023/05/28 09:09:12;;;;;;;6.17;3.37;;;21.30;99.90;;;;;;5049671;28;20504;-68
2023/05/28 09:11:39;;;;;;;3.43;3.10;;;21.40;99.60;;;;;;5052618;28;20489;-68
2023/05/28 09:14:17;;;;;;;4.20;2.77;;;21.50;99.60;;;;;;5053031;28;20473;-69
2023/05/28 09:16:45;;;;;;;4.67;2.60;;;21.60;99.60;;;;;;5074107;23;20502;-92
2023/05/28 09:19:15;;;;;;;5.23;2.70;;;21.80;99.90;;;;;;5100481;28;20497;-92
2023/05/28 09:22:14;;;;;;;4.77;3.03;;;22.00;99.90;;;;;;5100400;28;20471;-92
2023/05/28 09:24:40;;;;;;;4.27;2.90;;;22.10;99.90;;;;;;5101490;28;20462;-91
2023/05/28 09:27:08;;;;;;;8.63;3.07;;;22.20;97.20;;;;;;5102436;28;20436;-92
2023/05/28 09:29:35;;;;;;;4.97;3.07;;;22.10;98.30;;;;;;5100754;28;20848;-91
2023/05/28 09:32:02;;;;;;;4.00;3.03;;;22.10;95.80;;;;;;5099967;28;20517;-92
2023/05/28 09:34:29;;;;;;;4.07;3.10;;;22.00;98.20;;;;;;5099478;28;20954;-91
2023/05/28 09:37:16;;;;;;;5.60;3.80;;;22.10;96.70;;;;;;5100191;28;20462;-91
2023/05/28 09:39:43;;;;;;;3.67;2.97;;;22.10;97.70;;;;;;5101559;28;20463;-92
2023/05/28 09:42:35;;;;;;;6.07;3.63;;;22.20;96.70;;;;;;5101402;28;20468;-91
2023/05/28 09:45:02;;;;;;;6.13;3.67;;;22.30;97.70;;;;;;5102422;28;20452;-92
2023/05/28 09:47:48;;;;;;;8.30;2.90;;;22.50;97.60;;;;;;5095239;28;20467;-92
2023/05/28 09:50:15;;;;;;;5.00;3.00;;;22.60;96.90;;;;;;5098884;28;20476;-92
2023/05/28 09:52:46;;;;;;;4.10;3.10;;;22.70;97.60;;;;;;5099905;28;20475;-91
2023/05/28 09:55:28;;;;;;;4.67;3.00;;;22.70;97.20;;;;;;5082040;28;20558;-92
2023/05/28 10:01:22;;;;;;;4.83;3.40;;;23.00;97.80;;;;;;5082460;28;20997;-92
2023/05/28 10:03:54;;;;;;;3.90;3.27;;;22.90;95.10;;;;;;5083247;28;20459;-91
2023/05/28 10:06:24;;;;;;;6.33;3.30;;;22.90;95.10;;;;;;5079011;28;20473;-92
2023/05/28 10:08:54;;;;;;;4.80;3.10;;;22.90;95.60;;;;;;5078174;28;20466;-90
2023/05/28 10:11:25;;;;;;;6.07;3.40;;;22.90;97.40;;;;;;5076947;28;20477;-90
2023/05/28 10:13:53;;;;;;;5.80;3.60;;;23.10;96.50;;;;;;5076368;28;20848;-90
2023/05/28 10:16:20;;;;;;;5.23;3.13;;;23.30;97.60;;;;;;5082195;28;20473;-91
2023/05/28 10:18:49;;;;;;;7.13;3.13;;;23.20;94.90;;;;;;5096774;28;20459;-93
2023/05/28 10:21:16;;;;;;;5.03;3.60;;;23.30;97.00;;;;;;5097564;28;20487;-93
2023/05/28 10:23:44;;;;;;;5.83;3.50;;;23.30;94.70;;;;;;5098941;28;20474;-91
2023/05/28 10:26:14;;;;;;;4.20;3.50;;;23.30;97.40;;;;;;5096889;28;20447;-90
2023/05/28 10:28:41;;;;;;;4.93;3.27;;;23.50;96.60;;;;;;5086310;28;20459;-90
2023/05/28 10:31:10;;;;;;;4.87;3.20;;;23.60;96.90;;;;;;5078927;28;21018;-90
2023/05/28 10:33:39;;;;;;;3.30;2.57;;;23.90;98.00;;;;;;5080090;28;20466;-91
2023/05/28 10:36:11;;;;;;;5.43;3.17;;;24.00;96.70;;;;;;5078940;28;20455;-90
2023/05/28 10:38:43;;;;;;;4.83;3.20;;;24.10;96.50;;;;;;5077663;28;20465;-91
2023/05/28 10:41:12;;;;;;;7.67;4.10;;;24.20;96.60;;;;;;5082228;28;20540;-91
2023/05/28 10:43:46;;;;;;;4.10;3.07;;;24.30;96.70;;;;;;5083086;28;20519;-91
2023/05/28 10:46:17;;;;;;;5.37;3.33;;;24.40;96.90;;;;;;5081585;28;20478;-91
2023/05/28 10:49:06;;;;;;;5.67;3.23;;;24.50;95.40;;;;;;5073599;28;20463;-91
2023/05/28 10:51:47;;;;;;;5.73;3.77;;;24.60;94.20;;;;;;5072365;28;20805;-92
2023/05/28 10:54:16;;;;;;;5.60;3.33;;;24.40;94.90;;;;;;5072618;28;20468;-91
2023/05/28 10:57:08;;;;;;;4.50;3.03;;;24.30;94.80;;;;;;5073004;28;20470;-91
2023/05/28 10:59:45;;;;;;;3.77;2.93;;;24.40;94.30;;;;;;5072837;28;20478;-91
2023/05/28 11:02:18;;;;;;;5.80;3.87;;;24.50;96.70;;;;;;5074687;28;20840;-93
2023/05/28 11:04:45;;;;;;;3.93;3.10;;;24.70;95.20;;;;;;5078366;28;20469;-93
2023/05/28 11:07:13;;;;;;;4.57;3.20;;;25.00;96.30;;;;;;5078520;28;20476;-92
2023/05/28 11:09:40;;;;;;;4.73;2.80;;;25.10;96.20;;;;;;5076835;28;20463;-92
2023/05/28 11:12:09;;;;;;;3.80;2.90;;;25.30;93.20;;;;;;5077516;28;20475;-92
2023/05/28 11:14:37;;;;;;;5.87;3.20;;;25.40;94.00;;;;;;5089285;28;20466;-91
2023/05/28 11:17:12;;;;;;;6.53;3.63;;;25.40;95.50;;;;;;5102709;28;20471;-91
2023/05/28 11:19:42;;;;;;;4.87;3.33;;;25.60;95.90;;;;;;5100224;28;20460;-92
2023/05/28 11:22:09;;;;;;;4.37;3.60;;;25.70;92.50;;;;;;5098218;28;20481;-92
2023/05/28 11:24:58;;;;;;;4.97;3.40;;;25.90;95.80;;;;;;5098046;28;20476;-91
2023/05/28 11:27:27;;;;;;;4.37;2.97;;;26.10;93.00;;;;;;5099588;28;21018;-91
2023/05/28 11:29:56;;;;;;;6.77;3.50;;;26.00;93.20;;;;;;5096925;28;20461;-92
2023/05/28 11:32:23;;;;;;;4.53;3.00;;;26.10;93.60;;;;;;5096422;28;20507;-91
2023/05/28 11:34:50;;;;;;;4.67;3.20;;;26.30;96.10;;;;;;5097574;28;20474;-92
2023/05/28 11:37:24;;;;;;;4.47;3.50;;;26.60;95.60;;;;;;5096508;28;20469;-92
2023/05/28 11:39:51;;;;;;;3.60;3.00;;;26.90;93.80;;;;;;5094979;28;20455;-93
2023/05/28 11:42:18;;;;;;;3.90;3.30;;;27.00;93.50;;;;;;5095130;28;20485;-92
2023/05/28 11:44:47;;;;;;;5.00;3.30;;;27.10;91.40;;;;;;5095179;28;20460;-92
2023/05/28 11:47:14;;;;;;;3.20;2.90;;;27.20;93.30;;;;;;5096539;28;20467;-92
2023/05/28 11:49:42;;;;;;;3.83;3.43;;;27.10;90.50;;;;;;5099180;28;20468;-92
2023/05/28 11:52:12;;;;;;;5.50;3.47;;;27.10;90.20;;;;;;5096923;28;20507;-92
2023/05/28 11:54:40;;;;;;;3.20;2.90;;;27.10;90.90;;;;;;5095310;28;20470;-91
2023/05/28 11:57:07;;;;;;;3.80;3.10;;;27.10;88.90;;;;;;5094780;28;20840;-91
2023/05/28 11:59:34;;;;;;;4.03;2.90;;;27.20;91.10;;;;;;5095289;28;20459;-92
2023/05/28 12:02:14;;;;;;;4.20;3.30;;;27.20;89.60;;;;;;5095516;28;20488;-92
2023/05/28 12:04:53;;;;;;;4.30;3.27;;;27.00;91.10;;;;;;5096241;28;20558;-91
2023/05/28 12:07:19;;;;;;;5.97;3.60;;;27.20;92.80;;;;;;5096123;28;20746;-92
2023/05/28 12:09:46;;;;;;;3.73;3.43;;;27.50;92.20;;;;;;5097125;28;20461;-91
2023/05/28 12:12:13;;;;;;;3.97;3.50;;;27.70;92.10;;;;;;5099563;28;20837;-92
2023/05/28 12:14:41;;;;;;;3.90;3.17;;;27.60;91.00;;;;;;5098700;28;20457;-92
2023/05/28 12:17:10;;;;;;;3.70;2.97;;;27.50;90.70;;;;;;5111904;28;20535;-95
2023/05/28 12:19:38;;;;;;;3.50;3.10;;;27.60;91.60;;;;;;5110193;28;20469;-92
2023/05/28 12:22:14;;;;;;;3.23;2.93;;;27.90;92.70;;;;;;5095641;28;20489;-92
2023/05/28 12:24:48;;;;;;;4.50;3.60;;;28.00;89.10;;;;;;5096864;28;20796;-92
2023/05/28 12:27:15;;;;;;;2.97;2.67;;;28.00;90.20;;;;;;5096849;28;20465;-92
2023/05/28 12:29:42;;;;;;;5.53;3.20;;;27.80;91.20;;;;;;5098565;28;20984;-91
2023/05/28 12:32:09;;;;;;;4.63;3.47;;;27.80;91.20;;;;;;5098368;28;20496;-91
2023/05/28 12:34:36;;;;;;;4.63;3.67;;;27.50;84.70;;;;;;5096562;28;20591;-93
2023/05/28 12:37:08;;;;;;;3.80;2.87;;;27.50;90.50;;;;;;5097259;28;20467;-92
2023/05/28 12:39:36;;;;;;;5.00;3.20;;;27.20;85.80;;;;;;5096994;28;20539;-92
2023/05/28 12:42:05;;;;;;;4.67;3.17;;;27.10;85.60;;;;;;5105685;28;20568;-91
2023/05/28 12:44:31;;;;;;;3.77;2.93;;;27.10;86.60;;;;;;5099336;28;20460;-91
2023/05/28 12:46:58;;;;;;;5.00;3.70;;;27.00;82.70;;;;;;5101267;28;20547;-92
2023/05/28 12:49:25;;;;;;;3.20;2.90;;;27.00;89.00;;;;;;5100307;28;20465;-92
2023/05/28 12:51:52;;;;;;;6.93;3.90;;;27.00;86.40;;;;;;5099948;28;20483;-91
2023/05/28 12:54:21;;;;;;;4.00;2.77;;;26.90;85.60;;;;;;5099935;28;20474;-93
2023/05/28 12:56:48;;;;;;;3.63;3.30;;;26.90;85.50;;;;;;5102211;28;20457;-92
2023/05/28 12:59:22;;;;;;;4.33;3.20;;;27.00;79.10;;;;;;5100029;28;20461;-92
2023/05/28 13:01:49;;;;;;;3.63;2.87;;;27.10;83.10;;;;;;5102811;28;21191;-91
2023/05/28 13:04:16;;;;;;;5.13;3.57;;;27.20;85.30;;;;;;5104068;28;20977;-92